Time;durP1;ratioP1;P1;durP2;ratioP2;P2;SDS_P1;SDS_P2;PMS_P1;PMS_P2;Temp;Humidity;BMP_temperature;BMP_pressure;BME280_temperature;BME280_humidity;BME280_pressure;Samples;Min_cycle;Max_cycle;Signal;HPM_P1;HPM_P2
2022/11/02 00:01:26;;;;;;;1.30;0.67;;;12.10;99.90;;;;;;21040944;28;20753;-69
2022/11/02 00:11:28;;;;;;;0.83;0.50;;;;;;;;;;21056937;28;20220;-69
2022/11/02 00:21:30;;;;;;;1.73;0.70;;;;;;;;;;21063839;22;20301;-68
2022/11/02 00:31:32;;;;;;;2.33;0.70;;;;;;;;;;20927467;28;20237;-68
2022/11/02 00:41:34;;;;;;;1.07;0.50;;;;;;;;;;20871685;28;20275;-68
2022/11/02 00:51:36;;;;;;;1.50;0.53;;;;;;;;;;20870864;28;20582;-68
2022/11/02 01:01:38;;;;;;;1.10;0.70;;;;;;;;;;20854393;28;20214;-68
2022/11/02 01:11:40;;;;;;;0.93;0.40;;;;;;;;;;20884316;28;20234;-68
2022/11/02 01:21:42;;;;;;;1.80;0.57;;;;;;;;;;20868161;28;20209;-68
2022/11/02 01:31:44;;;;;;;0.83;0.43;;;11.80;99.90;;;;;;20852684;28;20222;-69
2022/11/02 01:41:51;;;;;;;1.73;0.60;;;11.50;99.90;;;;;;20850398;28;20290;-68
2022/11/02 01:52:10;;;;;;;1.07;0.53;;;11.40;99.90;;;;;;20885104;28;20712;-68
2022/11/02 02:02:24;;;;;;;2.33;0.40;;;;;;;;;;20864905;28;20263;-68
2022/11/02 02:12:26;;;;;;;1.67;0.60;;;11.50;99.90;;;;;;20867295;28;20804;-68
2022/11/02 02:22:41;;;;;;;3.23;0.93;;;11.40;99.90;;;;;;20866227;28;20767;-68
2022/11/02 02:32:49;;;;;;;1.73;0.50;;;;;;;;;;20890768;28;20267;-68
2022/11/02 02:43:01;;;;;;;2.33;0.70;;;11.40;99.90;;;;;;20980322;28;20214;-68
2022/11/02 02:53:06;;;;;;;3.27;0.60;;;11.30;99.90;;;;;;20893594;28;20537;-68
2022/11/02 03:03:14;;;;;;;1.27;0.60;;;11.30;99.90;;;;;;20863762;28;20283;-68
2022/11/02 03:13:20;;;;;;;1.17;0.70;;;;;;;;;;20878955;28;20206;-68
2022/11/02 03:23:22;;;;;;;0.90;0.47;;;;;;;;;;20877798;28;20218;-68
2022/11/02 03:33:34;;;;;;;0.70;0.30;;;;;;;;;;20877376;28;20268;-68
2022/11/02 03:43:37;;;;;;;3.70;0.70;;;;;;;;;;20794183;28;20213;-68
2022/11/02 03:53:55;;;;;;;2.13;0.50;;;;;;;;;;20793197;28;20272;-69
2022/11/02 04:03:58;;;;;;;2.67;0.70;;;;;;;;;;20795973;28;20840;-68
2022/11/02 04:34:42;;;;;;;1.80;0.60;;;;;;;;;;20865968;28;20221;-69
2022/11/02 04:44:44;;;;;;;1.33;0.67;;;;;;;;;;20828755;28;20279;-69
2022/11/02 04:54:54;;;;;;;1.97;0.77;;;;;;;;;;20866568;28;20226;-69
2022/11/02 05:04:57;;;;;;;1.77;0.40;;;;;;;;;;20854795;28;20794;-69
2022/11/02 05:14:59;;;;;;;1.57;0.60;;;;;;;;;;20849656;28;20272;-69
2022/11/02 05:25:01;;;;;;;1.07;0.47;;;;;;;;;;20832093;28;20283;-69
2022/11/02 05:35:05;;;;;;;0.87;0.40;;;;;;;;;;20869193;28;20256;-69
2022/11/02 05:45:08;;;;;;;1.10;0.40;;;;;;;;;;20852784;28;20942;-68
2022/11/02 05:55:10;;;;;;;3.13;1.70;;;;;;;;;;20852483;28;20796;-68
2022/11/02 06:05:12;;;;;;;4.37;1.90;;;;;;;;;;20868521;28;20256;-68
2022/11/02 06:15:14;;;;;;;3.63;2.03;;;;;;;;;;20851771;28;20209;-68
2022/11/02 06:25:16;;;;;;;0.97;0.60;;;;;;;;;;20860741;22;20704;-70
2022/11/02 06:35:18;;;;;;;1.90;0.60;;;;;;;;;;20898949;28;20750;-70
2022/11/02 06:45:21;;;;;;;2.20;0.70;;;;;;;;;;20867617;28;20295;-71
2022/11/02 06:55:23;;;;;;;2.00;0.83;;;;;;;;;;20893926;28;20214;-71
2022/11/02 07:05:25;;;;;;;1.63;0.50;;;;;;;;;;20889724;28;20276;-71
2022/11/02 07:15:26;;;;;;;3.27;0.50;;;;;;;;;;20906477;28;20213;-71
2022/11/02 07:25:30;;;;;;;2.93;0.70;;;11.10;99.90;;;;;;20901253;28;20299;-71
2022/11/02 07:35:35;;;;;;;2.53;0.60;;;;;;;;;;20908850;28;20617;-72
2022/11/02 07:45:37;;;;;;;2.63;0.70;;;;;;;;;;20905138;28;20238;-72
2022/11/02 07:55:39;;;;;;;2.20;0.50;;;;;;;;;;20888429;28;20232;-71
2022/11/02 08:05:42;;;;;;;1.60;0.60;;;;;;;;;;20888708;28;20766;-71
2022/11/02 08:15:44;;;;;;;2.97;0.77;;;;;;;;;;20896042;28;20214;-71
2022/11/02 08:25:48;;;;;;;2.30;0.70;;;12.40;99.90;;;;;;20900240;28;20237;-71
2022/11/02 08:35:50;;;;;;;3.50;0.80;;;;;;;;;;20880207;28;20233;-72
2022/11/02 08:45:52;;;;;;;1.90;0.77;;;;;;;;;;20898697;28;20218;-72
2022/11/02 08:55:57;;;;;;;2.27;0.70;;;13.00;99.90;;;;;;20893662;28;20210;-72
2022/11/02 09:05:59;;;;;;;2.80;0.60;;;;;;;;;;20901779;28;20276;-73
2022/11/02 09:16:01;;;;;;;3.73;1.00;;;;;;;;;;20876411;28;20672;-73
2022/11/02 09:26:03;;;;;;;4.13;0.70;;;;;;;;;;20895462;28;20252;-73
2022/11/02 09:36:05;;;;;;;2.13;0.50;;;13.80;99.90;;;;;;20894865;28;20285;-72
2022/11/02 09:46:08;;;;;;;2.50;0.90;;;;;;;;;;20895917;28;20295;-72
2022/11/02 09:56:11;;;;;;;7.33;0.77;;;;;;;;;;20888682;28;20217;-73
2022/11/02 10:06:18;;;;;;;2.57;0.53;;;;;;;;;;20891692;28;20343;-72
2022/11/02 10:16:25;;;;;;;1.10;0.50;;;13.90;99.90;;;;;;20908159;28;20210;-72
2022/11/02 10:26:28;;;;;;;1.30;0.60;;;;;;;;;;20906535;28;20213;-72
2022/11/02 10:36:32;;;;;;;2.13;0.90;;;;;;;;;;20910417;28;20209;-72
2022/11/02 10:47:02;;;;;;;1.90;0.67;;;15.10;99.90;;;;;;20887218;28;20218;-73
2022/11/02 10:57:17;;;;;;;1.87;0.53;;;15.30;99.90;;;;;;20908634;28;20275;-73
2022/11/02 11:07:25;;;;;;;3.67;0.80;;;15.40;99.90;;;;;;20902787;28;20213;-73
2022/11/02 11:17:29;;;;;;;3.17;0.90;;;;;;;;;;20905705;28;20693;-73
2022/11/02 11:27:43;;;;;;;3.53;0.90;;;;;;;;;;20882908;28;20292;-73
2022/11/02 11:37:52;;;;;;;4.33;0.77;;;;;;;;;;20871535;28;20209;-73
2022/11/02 11:47:57;;;;;;;2.30;0.77;;;;;;;;;;20904472;28;20291;-73
2022/11/02 11:58:14;;;;;;;5.07;1.23;;;;;;;;;;20904109;28;20232;-73
2022/11/02 12:08:19;;;;;;;3.43;0.83;;;;;;;;;;20889374;28;20221;-73
2022/11/02 12:18:29;;;;;;;1.00;0.50;;;;;;;;;;20905744;28;20538;-73
2022/11/02 12:39:07;;;;;;;1.43;0.70;;;16.10;99.90;;;;;;20817426;28;20229;-70
2022/11/02 12:49:19;;;;;;;3.87;0.70;;;16.30;99.90;;;;;;20851234;28;20271;-70
2022/11/02 12:59:33;;;;;;;1.87;0.67;;;;;;;;;;20824119;28;20749;-70
2022/11/02 13:10:01;;;;;;;1.67;0.60;;;16.50;99.90;;;;;;20867808;28;20213;-70
2022/11/02 13:20:13;;;;;;;1.70;0.50;;;16.40;99.90;;;;;;20868804;28;20233;-70
2022/11/02 13:30:17;;;;;;;2.87;0.80;;;16.30;99.90;;;;;;20884418;28;20290;-70
2022/11/02 13:40:32;;;;;;;1.27;0.40;;;;;;;;;;20892558;28;20221;-70
2022/11/02 13:50:40;;;;;;;1.50;0.57;;;16.00;99.90;;;;;;20901178;28;20205;-70
2022/11/02 14:00:45;;;;;;;1.37;0.50;;;15.70;99.90;;;;;;20884329;28;20268;-69
2022/11/02 14:11:05;;;;;;;0.67;0.33;;;15.40;99.90;;;;;;20859239;28;20214;-69
2022/11/02 14:21:37;;;;;;;3.10;0.60;;;;;;;;;;20882747;28;20746;-70
2022/11/02 14:31:48;;;;;;;1.80;0.70;;;14.90;99.90;;;;;;20869929;28;20307;-69
2022/11/02 14:41:56;;;;;;;2.53;0.60;;;;;;;;;;20898533;28;20287;-69
2022/11/02 14:52:13;;;;;;;1.47;0.63;;;;;;;;;;20880478;28;20214;-69
2022/11/02 15:02:27;;;;;;;1.73;0.60;;;14.90;99.90;;;;;;20897783;28;20225;-69
2022/11/02 15:12:40;;;;;;;2.10;0.83;;;14.70;99.90;;;;;;20895522;28;20293;-69
2022/11/02 15:22:52;;;;;;;1.57;0.50;;;14.60;99.90;;;;;;20863036;28;20692;-69
2022/11/02 15:33:00;;;;;;;1.60;0.60;;;14.60;99.90;;;;;;20877081;28;20217;-70
2022/11/02 15:43:45;;;;;;;2.17;0.60;;;14.50;99.90;;;;;;20860263;28;20244;-70
2022/11/02 15:54:15;;;;;;;1.07;0.70;;;14.30;99.90;;;;;;20892529;28;20622;-70
2022/11/02 16:04:21;;;;;;;1.73;0.80;;;14.20;99.90;;;;;;20890857;28;20709;-70
2022/11/02 16:14:23;;;;;;;2.50;0.70;;;;;;;;;;20889605;28;20218;-70
2022/11/02 16:24:25;;;;;;;4.23;1.30;;;;;;;;;;20873578;28;20218;-70
2022/11/02 16:34:30;;;;;;;2.80;1.63;;;;;;;;;;20889351;28;20275;-71
2022/11/02 16:44:33;;;;;;;3.73;1.40;;;;;;;;;;20888499;28;20221;-71
2022/11/02 16:54:37;;;;;;;7.53;1.57;;;;;;;;;;20903545;28;20221;-71
2022/11/02 17:04:41;;;;;;;3.00;1.43;;;;;;;;;;20886033;28;20697;-70
2022/11/02 17:14:46;;;;;;;4.00;1.67;;;13.50;99.90;;;;;;20901545;28;20230;-71
2022/11/02 17:24:48;;;;;;;5.13;1.40;;;;;;;;;;20884643;28;20273;-69
2022/11/02 17:34:59;;;;;;;1.30;0.53;;;13.20;99.90;;;;;;20852953;28;20269;-69
2022/11/02 17:45:20;;;;;;;3.33;0.90;;;;;;;;;;20768801;28;20646;-68
2022/11/02 17:55:23;;;;;;;3.70;1.27;;;;;;;;;;20759925;28;20630;-69
2022/11/02 18:05:36;;;;;;;2.80;1.00;;;13.00;99.90;;;;;;20772174;28;20226;-69
2022/11/02 18:15:38;;;;;;;3.83;1.43;;;;;;;;;;20792652;28;20743;-69
2022/11/02 18:25:39;;;;;;;5.07;1.50;;;;;;;;;;20782346;28;20760;-70
2022/11/02 18:35:41;;;;;;;2.13;1.17;;;;;;;;;;20804062;23;20620;-68
2022/11/02 18:45:45;;;;;;;2.43;1.07;;;;;;;;;;20823968;28;20787;-69
2022/11/02 18:55:47;;;;;;;1.83;1.10;;;;;;;;;;20808898;28;20709;-69
2022/11/02 19:16:16;;;;;;;4.47;2.07;;;;;;;;;;20824733;28;20802;-71
2022/11/02 19:26:18;;;;;;;5.23;1.83;;;;;;;;;;20821626;28;20582;-71
2022/11/02 19:36:20;;;;;;;4.93;1.63;;;;;;;;;;20815021;28;20672;-72
2022/11/02 19:46:22;;;;;;;4.20;2.40;;;;;;;;;;20815947;28;20218;-71
2022/11/02 19:56:27;;;;;;;3.80;2.27;;;;;;;;;;20813023;28;20218;-71
2022/11/02 20:06:40;;;;;;;6.33;1.87;;;12.00;99.90;;;;;;20812799;28;20291;-69
2022/11/02 20:16:43;;;;;;;8.43;3.83;;;;;;;;;;20807363;28;20234;-69
2022/11/02 20:26:44;;;;;;;7.57;3.00;;;;;;;;;;20766115;28;20222;-71
2022/11/02 20:36:46;;;;;;;3.80;1.93;;;;;;;;;;20739145;28;20261;-70
2022/11/02 20:46:48;;;;;;;5.23;1.50;;;;;;;;;;20715702;28;20242;-69
2022/11/02 20:56:50;;;;;;;4.03;1.67;;;;;;;;;;20732416;28;20203;-69
2022/11/02 21:06:52;;;;;;;2.60;1.50;;;;;;;;;;20731375;28;20231;-69
2022/11/02 21:16:54;;;;;;;4.50;1.40;;;;;;;;;;20716415;28;20203;-69
2022/11/02 21:26:56;;;;;;;3.90;1.30;;;;;;;;;;20732314;28;20273;-70
2022/11/02 21:36:58;;;;;;;2.63;1.13;;;;;;;;;;20710739;28;20772;-69
2022/11/02 21:46:59;;;;;;;3.93;1.70;;;;;;;;;;20731690;28;20280;-69
2022/11/02 21:57:01;;;;;;;4.17;1.27;;;;;;;;;;20732072;28;20199;-69
2022/11/02 22:07:03;;;;;;;6.70;2.47;;;;;;;;;;20750629;28;20257;-70
2022/11/02 22:17:06;;;;;;;2.90;1.57;;;11.00;99.90;;;;;;20768950;28;20701;-70
2022/11/02 22:27:07;;;;;;;4.87;2.30;;;;;;;;;;20823903;28;20265;-70
2022/11/02 22:47:31;;;;;;;3.83;1.50;;;;;;;;;;20791057;28;20250;-70
2022/11/02 22:57:33;;;;;;;5.20;1.67;;;;;;;;;;20830155;28;20211;-70
2022/11/02 23:07:34;;;;;;;3.33;1.70;;;;;;;;;;20810285;28;20267;-70
2022/11/02 23:17:36;;;;;;;3.47;1.20;;;;;;;;;;20759330;28;20212;-70
2022/11/02 23:38:06;;;;;;;4.40;1.20;;;;;;;;;;20822495;28;20279;-70
2022/11/02 23:48:08;;;;;;;2.30;1.27;;;10.60;99.90;;;;;;20823625;28;20268;-70
2022/11/02 23:58:10;;;;;;;2.67;1.20;;;;;;;;;;20805949;28;20206;-70
